sensor_id;sensor_type;location;lat;lon;timestamp;temperature;humidity
49238;DHT22;35069;47.906;1.892;2023-03-01T00:01:13;3.40;62.20
49238;DHT22;35069;47.906;1.892;2023-03-01T00:03:39;3.40;61.60
49238;DHT22;35069;47.906;1.892;2023-03-01T00:06:05;3.30;62.00
49238;DHT22;35069;47.906;1.892;2023-03-01T00:08:32;3.30;62.00
49238;DHT22;35069;47.906;1.892;2023-03-01T00:11:16;3.20;62.20
49238;DHT22;35069;47.906;1.892;2023-03-01T00:13:45;3.20;62.20
49238;DHT22;35069;47.906;1.892;2023-03-01T00:16:32;3.10;62.30
49238;DHT22;35069;47.906;1.892;2023-03-01T00:18:59;3.00;62.40
49238;DHT22;35069;47.906;1.892;2023-03-01T00:21:25;3.00;62.60
49238;DHT22;35069;47.906;1.892;2023-03-01T00:23:51;3.00;62.70
49238;DHT22;35069;47.906;1.892;2023-03-01T00:26:18;3.00;62.20
49238;DHT22;35069;47.906;1.892;2023-03-01T00:28:45;3.00;62.70
49238;DHT22;35069;47.906;1.892;2023-03-01T00:31:16;2.90;62.90
49238;DHT22;35069;47.906;1.892;2023-03-01T00:33:42;2.90;62.50
49238;DHT22;35069;47.906;1.892;2023-03-01T00:36:09;2.80;63.00
49238;DHT22;35069;47.906;1.892;2023-03-01T00:38:37;2.80;62.60
49238;DHT22;35069;47.906;1.892;2023-03-01T00:41:04;2.80;62.80
49238;DHT22;35069;47.906;1.892;2023-03-01T00:43:31;2.80;62.90
49238;DHT22;35069;47.906;1.892;2023-03-01T00:46:01;2.70;63.10
49238;DHT22;35069;47.906;1.892;2023-03-01T00:48:27;2.70;63.10
49238;DHT22;35069;47.906;1.892;2023-03-01T00:50:52;2.60;63.10
49238;DHT22;35069;47.906;1.892;2023-03-01T00:53:18;2.60;63.40
49238;DHT22;35069;47.906;1.892;2023-03-01T00:55:43;2.60;63.40
49238;DHT22;35069;47.906;1.892;2023-03-01T00:58:09;2.50;63.30
49238;DHT22;35069;47.906;1.892;2023-03-01T01:00:34;2.60;63.60
49238;DHT22;35069;47.906;1.892;2023-03-01T01:03:00;2.60;63.40
49238;DHT22;35069;47.906;1.892;2023-03-01T01:05:25;2.50;63.60
49238;DHT22;35069;47.906;1.892;2023-03-01T01:07:51;2.50;63.60
49238;DHT22;35069;47.906;1.892;2023-03-01T01:10:17;2.50;63.60
49238;DHT22;35069;47.906;1.892;2023-03-01T01:12:44;2.50;63.60
49238;DHT22;35069;47.906;1.892;2023-03-01T01:15:10;2.40;63.60
49238;DHT22;35069;47.906;1.892;2023-03-01T01:17:38;2.40;63.70
49238;DHT22;35069;47.906;1.892;2023-03-01T01:20:04;2.40;63.80
49238;DHT22;35069;47.906;1.892;2023-03-01T01:22:30;2.30;63.90
49238;DHT22;35069;47.906;1.892;2023-03-01T01:24:55;2.30;64.00
49238;DHT22;35069;47.906;1.892;2023-03-01T01:27:21;2.20;64.00
49238;DHT22;35069;47.906;1.892;2023-03-01T01:29:46;2.20;64.00
49238;DHT22;35069;47.906;1.892;2023-03-01T01:32:12;2.20;63.90
49238;DHT22;35069;47.906;1.892;2023-03-01T01:34:38;2.20;64.20
49238;DHT22;35069;47.906;1.892;2023-03-01T01:37:04;2.10;64.10
49238;DHT22;35069;47.906;1.892;2023-03-01T01:39:33;2.00;64.20
49238;DHT22;35069;47.906;1.892;2023-03-01T01:42:00;2.00;64.40
49238;DHT22;35069;47.906;1.892;2023-03-01T01:44:28;2.00;64.50
49238;DHT22;35069;47.906;1.892;2023-03-01T01:46:57;1.90;64.30
49238;DHT22;35069;47.906;1.892;2023-03-01T01:49:35;1.90;64.50
49238;DHT22;35069;47.906;1.892;2023-03-01T01:57:24;1.80;64.90
49238;DHT22;35069;47.906;1.892;2023-03-01T01:59:53;1.80;64.80
49238;DHT22;35069;47.906;1.892;2023-03-01T02:02:21;1.70;65.00
49238;DHT22;35069;47.906;1.892;2023-03-01T02:04:49;1.70;65.10
49238;DHT22;35069;47.906;1.892;2023-03-01T02:07:20;1.60;65.20
49238;DHT22;35069;47.906;1.892;2023-03-01T02:09:49;1.60;65.30
49238;DHT22;35069;47.906;1.892;2023-03-01T02:12:17;1.60;65.60
49238;DHT22;35069;47.906;1.892;2023-03-01T02:14:43;1.60;65.40
49238;DHT22;35069;47.906;1.892;2023-03-01T02:17:10;1.60;65.50
49238;DHT22;35069;47.906;1.892;2023-03-01T02:19:44;1.60;65.60
49238;DHT22;35069;47.906;1.892;2023-03-01T02:22:22;1.50;65.60
49238;DHT22;35069;47.906;1.892;2023-03-01T02:25:19;1.50;65.40
49238;DHT22;35069;47.906;1.892;2023-03-01T02:30:33;1.50;65.40
49238;DHT22;35069;47.906;1.892;2023-03-01T02:33:00;1.50;65.70
49238;DHT22;35069;47.906;1.892;2023-03-01T02:35:37;1.40;65.90
49238;DHT22;35069;47.906;1.892;2023-03-01T02:38:03;1.40;66.00
49238;DHT22;35069;47.906;1.892;2023-03-01T02:40:34;1.40;65.90
49238;DHT22;35069;47.906;1.892;2023-03-01T02:42:59;1.40;66.00
49238;DHT22;35069;47.906;1.892;2023-03-01T02:45:26;1.40;65.90
49238;DHT22;35069;47.906;1.892;2023-03-01T02:47:56;1.40;66.20
49238;DHT22;35069;47.906;1.892;2023-03-01T02:50:46;1.40;66.20
49238;DHT22;35069;47.906;1.892;2023-03-01T02:56:05;1.40;67.20
49238;DHT22;35069;47.906;1.892;2023-03-01T02:58:30;1.30;66.40
49238;DHT22;35069;47.906;1.892;2023-03-01T03:00:56;1.30;66.80
49238;DHT22;35069;47.906;1.892;2023-03-01T03:03:22;1.20;66.80
49238;DHT22;35069;47.906;1.892;2023-03-01T03:05:48;1.20;66.60
49238;DHT22;35069;47.906;1.892;2023-03-01T03:08:14;1.20;66.90
49238;DHT22;35069;47.906;1.892;2023-03-01T03:10:41;1.20;66.40
49238;DHT22;35069;47.906;1.892;2023-03-01T03:13:13;1.20;67.00
49238;DHT22;35069;47.906;1.892;2023-03-01T03:15:40;1.20;66.80
49238;DHT22;35069;47.906;1.892;2023-03-01T03:18:12;1.10;66.90
49238;DHT22;35069;47.906;1.892;2023-03-01T03:20:40;1.10;67.40
49238;DHT22;35069;47.906;1.892;2023-03-01T03:23:06;1.10;67.50
49238;DHT22;35069;47.906;1.892;2023-03-01T03:25:32;1.00;67.50
49238;DHT22;35069;47.906;1.892;2023-03-01T03:27:58;1.00;67.70
49238;DHT22;35069;47.906;1.892;2023-03-01T03:30:26;1.00;67.80
49238;DHT22;35069;47.906;1.892;2023-03-01T03:32:52;1.00;67.80
49238;DHT22;35069;47.906;1.892;2023-03-01T03:35:23;0.90;68.10
49238;DHT22;35069;47.906;1.892;2023-03-01T03:37:50;1.00;67.60
49238;DHT22;35069;47.906;1.892;2023-03-01T03:40:41;0.90;68.00
49238;DHT22;35069;47.906;1.892;2023-03-01T03:43:10;0.90;68.20
49238;DHT22;35069;47.906;1.892;2023-03-01T03:45:36;0.90;68.10
49238;DHT22;35069;47.906;1.892;2023-03-01T03:48:04;0.90;68.30
49238;DHT22;35069;47.906;1.892;2023-03-01T03:50:30;0.80;68.00
49238;DHT22;35069;47.906;1.892;2023-03-01T03:52:56;0.80;68.50
49238;DHT22;35069;47.906;1.892;2023-03-01T03:55:21;0.80;68.50
49238;DHT22;35069;47.906;1.892;2023-03-01T03:57:48;0.80;68.60
49238;DHT22;35069;47.906;1.892;2023-03-01T04:00:21;0.80;68.70
49238;DHT22;35069;47.906;1.892;2023-03-01T04:02:48;0.80;68.80
49238;DHT22;35069;47.906;1.892;2023-03-01T04:05:16;0.70;68.60
49238;DHT22;35069;47.906;1.892;2023-03-01T04:07:42;0.70;69.00
49238;DHT22;35069;47.906;1.892;2023-03-01T04:10:16;0.70;69.00
49238;DHT22;35069;47.906;1.892;2023-03-01T04:12:42;0.70;69.10
49238;DHT22;35069;47.906;1.892;2023-03-01T04:15:09;0.70;69.00
49238;DHT22;35069;47.906;1.892;2023-03-01T04:17:45;0.70;68.90
49238;DHT22;35069;47.906;1.892;2023-03-01T04:20:14;0.70;69.40
49238;DHT22;35069;47.906;1.892;2023-03-01T04:22:43;0.70;69.30
49238;DHT22;35069;47.906;1.892;2023-03-01T04:25:12;0.70;69.00
49238;DHT22;35069;47.906;1.892;2023-03-01T04:27:40;0.70;69.20
49238;DHT22;35069;47.906;1.892;2023-03-01T04:30:07;0.70;69.30
49238;DHT22;35069;47.906;1.892;2023-03-01T04:32:33;0.70;69.40
49238;DHT22;35069;47.906;1.892;2023-03-01T04:34:59;0.70;69.60
49238;DHT22;35069;47.906;1.892;2023-03-01T04:37:25;0.60;69.50
49238;DHT22;35069;47.906;1.892;2023-03-01T04:39:50;0.60;69.70
49238;DHT22;35069;47.906;1.892;2023-03-01T04:42:16;0.60;69.20
49238;DHT22;35069;47.906;1.892;2023-03-01T04:44:45;0.70;69.70
49238;DHT22;35069;47.906;1.892;2023-03-01T04:47:11;0.60;69.80
49238;DHT22;35069;47.906;1.892;2023-03-01T04:49:37;0.60;69.60
49238;DHT22;35069;47.906;1.892;2023-03-01T04:52:03;0.60;69.90
49238;DHT22;35069;47.906;1.892;2023-03-01T04:54:33;0.60;70.20
49238;DHT22;35069;47.906;1.892;2023-03-01T04:57:00;0.50;69.70
49238;DHT22;35069;47.906;1.892;2023-03-01T04:59:26;0.50;70.00
49238;DHT22;35069;47.906;1.892;2023-03-01T05:01:53;0.50;70.30
49238;DHT22;35069;47.906;1.892;2023-03-01T05:04:21;0.50;70.50
49238;DHT22;35069;47.906;1.892;2023-03-01T05:06:47;0.50;70.60
49238;DHT22;35069;47.906;1.892;2023-03-01T05:09:12;0.40;70.70
49238;DHT22;35069;47.906;1.892;2023-03-01T05:11:38;0.40;70.60
49238;DHT22;35069;47.906;1.892;2023-03-01T05:14:04;0.40;71.00
49238;DHT22;35069;47.906;1.892;2023-03-01T05:16:30;0.40;70.70
49238;DHT22;35069;47.906;1.892;2023-03-01T05:18:57;0.30;70.90
49238;DHT22;35069;47.906;1.892;2023-03-01T05:21:23;0.30;71.10
49238;DHT22;35069;47.906;1.892;2023-03-01T05:23:49;0.30;71.20
49238;DHT22;35069;47.906;1.892;2023-03-01T05:26:17;0.30;71.20
49238;DHT22;35069;47.906;1.892;2023-03-01T05:28:43;0.20;71.50
49238;DHT22;35069;47.906;1.892;2023-03-01T05:31:09;0.20;71.30
49238;DHT22;35069;47.906;1.892;2023-03-01T05:33:39;0.20;71.50
49238;DHT22;35069;47.906;1.892;2023-03-01T05:36:06;0.30;71.50
49238;DHT22;35069;47.906;1.892;2023-03-01T05:38:33;0.30;71.10
49238;DHT22;35069;47.906;1.892;2023-03-01T05:40:59;0.30;71.60
49238;DHT22;35069;47.906;1.892;2023-03-01T05:43:24;0.20;71.90
49238;DHT22;35069;47.906;1.892;2023-03-01T05:45:50;0.20;71.30
49238;DHT22;35069;47.906;1.892;2023-03-01T05:48:16;0.20;72.10
49238;DHT22;35069;47.906;1.892;2023-03-01T05:50:45;0.10;71.90
49238;DHT22;35069;47.906;1.892;2023-03-01T05:55:38;0.10;72.30
49238;DHT22;35069;47.906;1.892;2023-03-01T05:58:06;0.10;72.30
49238;DHT22;35069;47.906;1.892;2023-03-01T06:00:33;0.10;72.70
49238;DHT22;35069;47.906;1.892;2023-03-01T06:02:59;0.10;72.70
49238;DHT22;35069;47.906;1.892;2023-03-01T06:05:26;0.00;72.80
49238;DHT22;35069;47.906;1.892;2023-03-01T06:07:51;0.00;72.80
49238;DHT22;35069;47.906;1.892;2023-03-01T06:10:19;0.10;72.90
49238;DHT22;35069;47.906;1.892;2023-03-01T06:12:45;0.10;72.90
49238;DHT22;35069;47.906;1.892;2023-03-01T06:15:15;0.10;71.70
49238;DHT22;35069;47.906;1.892;2023-03-01T06:17:43;0.10;72.20
49238;DHT22;35069;47.906;1.892;2023-03-01T06:20:17;0.10;72.60
49238;DHT22;35069;47.906;1.892;2023-03-01T06:22:43;0.10;72.00
49238;DHT22;35069;47.906;1.892;2023-03-01T06:25:11;0.20;72.50
49238;DHT22;35069;47.906;1.892;2023-03-01T06:27:40;0.30;71.40
49238;DHT22;35069;47.906;1.892;2023-03-01T06:30:07;0.30;71.80
49238;DHT22;35069;47.906;1.892;2023-03-01T06:32:33;0.30;72.60
49238;DHT22;35069;47.906;1.892;2023-03-01T06:34:59;0.30;72.70
49238;DHT22;35069;47.906;1.892;2023-03-01T06:37:25;0.30;72.50
49238;DHT22;35069;47.906;1.892;2023-03-01T06:39:51;0.30;71.70
49238;DHT22;35069;47.906;1.892;2023-03-01T06:42:17;0.40;72.00
49238;DHT22;35069;47.906;1.892;2023-03-01T06:44:44;0.40;71.80
49238;DHT22;35069;47.906;1.892;2023-03-01T06:47:11;0.50;71.10
49238;DHT22;35069;47.906;1.892;2023-03-01T06:49:36;0.50;70.90
49238;DHT22;35069;47.906;1.892;2023-03-01T06:52:02;0.60;70.60
49238;DHT22;35069;47.906;1.892;2023-03-01T06:54:28;0.60;70.40
49238;DHT22;35069;47.906;1.892;2023-03-01T06:56:54;0.70;70.60
49238;DHT22;35069;47.906;1.892;2023-03-01T06:59:19;0.70;70.20
49238;DHT22;35069;47.906;1.892;2023-03-01T07:01:45;0.80;70.00
49238;DHT22;35069;47.906;1.892;2023-03-01T07:04:12;0.80;70.20
49238;DHT22;35069;47.906;1.892;2023-03-01T07:06:37;0.80;71.30
49238;DHT22;35069;47.906;1.892;2023-03-01T07:09:03;1.00;70.70
49238;DHT22;35069;47.906;1.892;2023-03-01T07:11:29;1.20;71.20
49238;DHT22;35069;47.906;1.892;2023-03-01T07:13:54;1.50;71.40
49238;DHT22;35069;47.906;1.892;2023-03-01T07:16:21;2.20;71.40
49238;DHT22;35069;47.906;1.892;2023-03-01T07:18:47;3.30;70.10
49238;DHT22;35069;47.906;1.892;2023-03-01T07:21:15;4.90;67.50
49238;DHT22;35069;47.906;1.892;2023-03-01T07:23:42;7.00;62.20
49238;DHT22;35069;47.906;1.892;2023-03-01T07:26:07;8.80;57.00
49238;DHT22;35069;47.906;1.892;2023-03-01T07:28:33;10.50;53.40
49238;DHT22;35069;47.906;1.892;2023-03-01T07:31:05;11.70;51.20
49238;DHT22;35069;47.906;1.892;2023-03-01T07:33:31;12.40;48.80
49238;DHT22;35069;47.906;1.892;2023-03-01T07:36:00;12.10;49.20
49238;DHT22;35069;47.906;1.892;2023-03-01T07:38:28;10.40;50.90
49238;DHT22;35069;47.906;1.892;2023-03-01T07:40:57;9.30;52.90
49238;DHT22;35069;47.906;1.892;2023-03-01T07:43:24;8.50;54.90
49238;DHT22;35069;47.906;1.892;2023-03-01T07:45:50;8.00;57.40
49238;DHT22;35069;47.906;1.892;2023-03-01T07:48:15;7.70;61.70
49238;DHT22;35069;47.906;1.892;2023-03-01T07:50:41;8.20;62.60
49238;DHT22;35069;47.906;1.892;2023-03-01T07:53:07;10.20;56.50
49238;DHT22;35069;47.906;1.892;2023-03-01T07:55:32;13.40;53.50
49238;DHT22;35069;47.906;1.892;2023-03-01T07:57:58;15.70;49.80
49238;DHT22;35069;47.906;1.892;2023-03-01T08:00:24;17.30;45.20
49238;DHT22;35069;47.906;1.892;2023-03-01T08:02:49;18.10;42.80
49238;DHT22;35069;47.906;1.892;2023-03-01T08:05:15;18.90;41.60
49238;DHT22;35069;47.906;1.892;2023-03-01T08:07:41;19.40;41.10
49238;DHT22;35069;47.906;1.892;2023-03-01T08:10:07;19.30;40.60
49238;DHT22;35069;47.906;1.892;2023-03-01T08:12:33;19.40;40.90
49238;DHT22;35069;47.906;1.892;2023-03-01T08:14:59;20.30;40.00
49238;DHT22;35069;47.906;1.892;2023-03-01T08:17:24;20.80;38.00
49238;DHT22;35069;47.906;1.892;2023-03-01T08:19:50;19.40;35.70
49238;DHT22;35069;47.906;1.892;2023-03-01T08:22:16;15.10;36.70
49238;DHT22;35069;47.906;1.892;2023-03-01T08:24:41;12.40;39.80
49238;DHT22;35069;47.906;1.892;2023-03-01T08:27:07;10.10;42.90
49238;DHT22;35069;47.906;1.892;2023-03-01T08:29:34;8.40;46.10
49238;DHT22;35069;47.906;1.892;2023-03-01T08:31:59;7.50;47.90
49238;DHT22;35069;47.906;1.892;2023-03-01T08:34:25;6.30;50.60
49238;DHT22;35069;47.906;1.892;2023-03-01T08:36:51;5.60;52.10
49238;DHT22;35069;47.906;1.892;2023-03-01T08:39:18;5.30;52.50
49238;DHT22;35069;47.906;1.892;2023-03-01T08:41:44;5.00;54.10
49238;DHT22;35069;47.906;1.892;2023-03-01T08:44:12;4.80;54.30
49238;DHT22;35069;47.906;1.892;2023-03-01T08:46:40;4.70;55.80
49238;DHT22;35069;47.906;1.892;2023-03-01T08:49:16;4.60;55.50
49238;DHT22;35069;47.906;1.892;2023-03-01T08:51:43;4.60;55.70
49238;DHT22;35069;47.906;1.892;2023-03-01T08:54:15;4.50;57.70
49238;DHT22;35069;47.906;1.892;2023-03-01T08:56:42;4.40;58.00
49238;DHT22;35069;47.906;1.892;2023-03-01T08:59:07;4.20;58.50
49238;DHT22;35069;47.906;1.892;2023-03-01T09:01:33;4.20;58.80
49238;DHT22;35069;47.906;1.892;2023-03-01T09:03:59;4.10;59.50
49238;DHT22;35069;47.906;1.892;2023-03-01T09:06:25;4.00;59.00
49238;DHT22;35069;47.906;1.892;2023-03-01T09:08:51;4.00;60.00
49238;DHT22;35069;47.906;1.892;2023-03-01T09:11:19;4.10;59.10
49238;DHT22;35069;47.906;1.892;2023-03-01T09:13:47;4.10;60.30
49238;DHT22;35069;47.906;1.892;2023-03-01T09:16:15;3.90;60.60
49238;DHT22;35069;47.906;1.892;2023-03-01T09:18:42;4.00;60.80
49238;DHT22;35069;47.906;1.892;2023-03-01T09:21:11;4.20;60.60
49238;DHT22;35069;47.906;1.892;2023-03-01T09:23:38;4.30;61.30
49238;DHT22;35069;47.906;1.892;2023-03-01T09:26:08;4.50;60.70
49238;DHT22;35069;47.906;1.892;2023-03-01T09:28:35;4.80;61.60
49238;DHT22;35069;47.906;1.892;2023-03-01T09:31:02;5.10;60.60
49238;DHT22;35069;47.906;1.892;2023-03-01T09:33:29;5.50;61.30
49238;DHT22;35069;47.906;1.892;2023-03-01T09:36:04;6.20;63.70
49238;DHT22;35069;47.906;1.892;2023-03-01T09:38:31;7.00;62.70
49238;DHT22;35069;47.906;1.892;2023-03-01T09:40:56;7.50;65.00
49238;DHT22;35069;47.906;1.892;2023-03-01T09:46:10;8.80;57.40
49238;DHT22;35069;47.906;1.892;2023-03-01T09:48:51;9.30;64.00
49238;DHT22;35069;47.906;1.892;2023-03-01T09:51:26;9.70;63.70
49238;DHT22;35069;47.906;1.892;2023-03-01T09:53:52;11.00;65.40
49238;DHT22;35069;47.906;1.892;2023-03-01T09:56:28;12.80;58.70
49238;DHT22;35069;47.906;1.892;2023-03-01T10:01:35;15.40;47.60
49238;DHT22;35069;47.906;1.892;2023-03-01T10:04:18;16.10;46.00
49238;DHT22;35069;47.906;1.892;2023-03-01T10:07:10;17.80;45.30
49238;DHT22;35069;47.906;1.892;2023-03-01T10:09:44;20.70;39.60
49238;DHT22;35069;47.906;1.892;2023-03-01T10:12:14;22.80;40.80
49238;DHT22;35069;47.906;1.892;2023-03-01T10:19:52;24.30;33.70
49238;DHT22;35069;47.906;1.892;2023-03-01T10:22:22;22.80;37.50
49238;DHT22;35069;47.906;1.892;2023-03-01T10:24:51;22.50;37.40
49238;DHT22;35069;47.906;1.892;2023-03-01T10:27:29;23.80;36.60
49238;DHT22;35069;47.906;1.892;2023-03-01T10:30:10;25.00;35.10
49238;DHT22;35069;47.906;1.892;2023-03-01T10:32:39;25.20;33.70
49238;DHT22;35069;47.906;1.892;2023-03-01T10:35:26;24.50;33.30
49238;DHT22;35069;47.906;1.892;2023-03-01T10:38:13;23.80;30.70
49238;DHT22;35069;47.906;1.892;2023-03-01T10:41:00;22.40;35.80
49238;DHT22;35069;47.906;1.892;2023-03-01T10:43:50;23.40;31.60
49238;DHT22;35069;47.906;1.892;2023-03-01T10:46:35;23.50;32.00
49238;DHT22;35069;47.906;1.892;2023-03-01T10:51:40;23.50;31.20
49238;DHT22;35069;47.906;1.892;2023-03-01T10:54:16;21.30;35.20
49238;DHT22;35069;47.906;1.892;2023-03-01T10:56:53;21.30;35.30
49238;DHT22;35069;47.906;1.892;2023-03-01T10:59:35;22.90;34.60
49238;DHT22;35069;47.906;1.892;2023-03-01T11:02:28;23.30;33.90
49238;DHT22;35069;47.906;1.892;2023-03-01T11:07:22;21.10;33.30
49238;DHT22;35069;47.906;1.892;2023-03-01T11:09:48;21.20;33.80
49238;DHT22;35069;47.906;1.892;2023-03-01T11:12:14;21.70;34.10
49238;DHT22;35069;47.906;1.892;2023-03-01T11:14:51;21.90;34.50
49238;DHT22;35069;47.906;1.892;2023-03-01T11:17:30;20.10;33.20
49238;DHT22;35069;47.906;1.892;2023-03-01T11:22:27;18.90;38.90
49238;DHT22;35069;47.906;1.892;2023-03-01T11:24:54;19.60;38.30
49238;DHT22;35069;47.906;1.892;2023-03-01T11:27:32;20.10;38.20
49238;DHT22;35069;47.906;1.892;2023-03-01T11:30:05;20.30;37.30
49238;DHT22;35069;47.906;1.892;2023-03-01T11:35:30;19.60;34.90
49238;DHT22;35069;47.906;1.892;2023-03-01T11:40:35;19.50;37.00
49238;DHT22;35069;47.906;1.892;2023-03-01T11:43:32;19.50;35.10
49238;DHT22;35069;47.906;1.892;2023-03-01T12:05:50;19.40;37.60
49238;DHT22;35069;47.906;1.892;2023-03-01T12:35:47;17.00;35.70
49238;DHT22;35069;47.906;1.892;2023-03-01T12:41:11;16.10;37.90
49238;DHT22;35069;47.906;1.892;2023-03-01T12:44:04;15.80;38.30
49238;DHT22;35069;47.906;1.892;2023-03-01T12:47:03;16.00;37.90
49238;DHT22;35069;47.906;1.892;2023-03-01T12:49:40;16.00;34.80
49238;DHT22;35069;47.906;1.892;2023-03-01T12:52:33;15.60;33.00
49238;DHT22;35069;47.906;1.892;2023-03-01T12:55:02;15.10;33.30
49238;DHT22;35069;47.906;1.892;2023-03-01T12:57:46;14.20;34.20
49238;DHT22;35069;47.906;1.892;2023-03-01T13:00:28;13.20;36.70
49238;DHT22;35069;47.906;1.892;2023-03-01T13:08:51;11.60;40.90
49238;DHT22;35069;47.906;1.892;2023-03-01T13:11:21;11.30;40.50
49238;DHT22;35069;47.906;1.892;2023-03-01T13:13:48;11.10;39.50
49238;DHT22;35069;47.906;1.892;2023-03-01T13:19:21;10.70;40.80
49238;DHT22;35069;47.906;1.892;2023-03-01T13:21:49;10.60;40.90
49238;DHT22;35069;47.906;1.892;2023-03-01T13:24:27;10.70;40.80
49238;DHT22;35069;47.906;1.892;2023-03-01T13:32:30;10.60;43.40
49238;DHT22;35069;47.906;1.892;2023-03-01T13:37:35;10.10;43.40
49238;DHT22;35069;47.906;1.892;2023-03-01T13:40:07;10.10;42.90
49238;DHT22;35069;47.906;1.892;2023-03-01T13:42:53;10.10;43.90
49238;DHT22;35069;47.906;1.892;2023-03-01T13:47:58;9.50;45.00
49238;DHT22;35069;47.906;1.892;2023-03-01T13:50:35;9.40;45.00
49238;DHT22;35069;47.906;1.892;2023-03-01T13:53:05;9.50;46.00
49238;DHT22;35069;47.906;1.892;2023-03-01T13:55:42;9.50;45.70
49238;DHT22;35069;47.906;1.892;2023-03-01T13:58:21;9.50;46.70
49238;DHT22;35069;47.906;1.892;2023-03-01T14:00:55;9.40;46.00
49238;DHT22;35069;47.906;1.892;2023-03-01T14:03:21;9.40;46.20
49238;DHT22;35069;47.906;1.892;2023-03-01T14:06:03;9.50;45.70
49238;DHT22;35069;47.906;1.892;2023-03-01T14:08:32;9.40;45.80
49238;DHT22;35069;47.906;1.892;2023-03-01T14:19:18;9.10;48.50
49238;DHT22;35069;47.906;1.892;2023-03-01T14:22:41;9.10;47.10
49238;DHT22;35069;47.906;1.892;2023-03-01T14:24:52;9.10;47.80
49238;DHT22;35069;47.906;1.892;2023-03-01T14:27:20;9.10;46.90
49238;DHT22;35069;47.906;1.892;2023-03-01T14:30:00;9.20;47.00
49238;DHT22;35069;47.906;1.892;2023-03-01T14:32:31;9.10;47.70
49238;DHT22;35069;47.906;1.892;2023-03-01T14:34:59;9.20;47.40
49238;DHT22;35069;47.906;1.892;2023-03-01T14:37:34;9.20;47.40
49238;DHT22;35069;47.906;1.892;2023-03-01T14:40:02;9.20;47.40
49238;DHT22;35069;47.906;1.892;2023-03-01T14:42:34;9.20;47.40
49238;DHT22;35069;47.906;1.892;2023-03-01T14:45:03;9.10;48.80
49238;DHT22;35069;47.906;1.892;2023-03-01T14:47:35;8.80;49.10
49238;DHT22;35069;47.906;1.892;2023-03-01T14:50:32;8.70;49.40
49238;DHT22;35069;47.906;1.892;2023-03-01T14:53:01;8.80;49.80
49238;DHT22;35069;47.906;1.892;2023-03-01T14:55:38;8.70;49.60
49238;DHT22;35069;47.906;1.892;2023-03-01T14:58:13;8.70;49.40
49238;DHT22;35069;47.906;1.892;2023-03-01T15:00:49;8.90;49.10
49238;DHT22;35069;47.906;1.892;2023-03-01T15:05:52;8.80;49.40
49238;DHT22;35069;47.906;1.892;2023-03-01T15:08:24;8.80;49.60
49238;DHT22;35069;47.906;1.892;2023-03-01T15:13:41;8.90;49.20
49238;DHT22;35069;47.906;1.892;2023-03-01T15:16:12;8.80;49.90
49238;DHT22;35069;47.906;1.892;2023-03-01T15:18:48;8.80;49.50
49238;DHT22;35069;47.906;1.892;2023-03-01T15:21:29;8.80;49.70
49238;DHT22;35069;47.906;1.892;2023-03-01T15:24:17;8.80;49.60
49238;DHT22;35069;47.906;1.892;2023-03-01T15:26:50;8.90;49.60
49238;DHT22;35069;47.906;1.892;2023-03-01T15:29:22;8.90;49.90
49238;DHT22;35069;47.906;1.892;2023-03-01T15:32:25;8.80;50.00
49238;DHT22;35069;47.906;1.892;2023-03-01T15:34:50;8.80;51.10
49238;DHT22;35069;47.906;1.892;2023-03-01T15:37:45;8.90;50.00
49238;DHT22;35069;47.906;1.892;2023-03-01T15:40:28;8.70;51.20
49238;DHT22;35069;47.906;1.892;2023-03-01T15:43:01;8.70;51.00
49238;DHT22;35069;47.906;1.892;2023-03-01T15:45:29;8.60;51.00
49238;DHT22;35069;47.906;1.892;2023-03-01T15:47:56;8.60;51.00
49238;DHT22;35069;47.906;1.892;2023-03-01T15:50:34;8.50;51.10
49238;DHT22;35069;47.906;1.892;2023-03-01T15:53:05;8.60;51.10
49238;DHT22;35069;47.906;1.892;2023-03-01T15:55:32;8.50;51.00
49238;DHT22;35069;47.906;1.892;2023-03-01T16:00:30;8.30;51.40
49238;DHT22;35069;47.906;1.892;2023-03-01T16:02:56;8.20;51.70
49238;DHT22;35069;47.906;1.892;2023-03-01T16:07:49;8.10;52.00
49238;DHT22;35069;47.906;1.892;2023-03-01T16:10:16;8.10;52.60
49238;DHT22;35069;47.906;1.892;2023-03-01T16:12:41;8.00;52.30
49238;DHT22;35069;47.906;1.892;2023-03-01T16:17:50;8.20;52.20
49238;DHT22;35069;47.906;1.892;2023-03-01T16:20:16;8.20;52.30
49238;DHT22;35069;47.906;1.892;2023-03-01T16:22:43;8.20;52.20
49238;DHT22;35069;47.906;1.892;2023-03-01T16:25:11;8.30;52.20
49238;DHT22;35069;47.906;1.892;2023-03-01T16:27:44;8.30;52.20
49238;DHT22;35069;47.906;1.892;2023-03-01T16:30:19;8.20;52.30
49238;DHT22;35069;47.906;1.892;2023-03-01T16:32:46;8.20;52.40
49238;DHT22;35069;47.906;1.892;2023-03-01T16:35:13;8.10;52.70
49238;DHT22;35069;47.906;1.892;2023-03-01T16:37:40;8.00;52.70
49238;DHT22;35069;47.906;1.892;2023-03-01T16:40:11;7.90;53.10
49238;DHT22;35069;47.906;1.892;2023-03-01T16:42:41;7.80;53.30
49238;DHT22;35069;47.906;1.892;2023-03-01T16:45:08;7.80;53.70
49238;DHT22;35069;47.906;1.892;2023-03-01T16:47:34;7.70;53.70
49238;DHT22;35069;47.906;1.892;2023-03-01T16:49:59;7.70;54.00
49238;DHT22;35069;47.906;1.892;2023-03-01T16:52:25;7.60;54.10
49238;DHT22;35069;47.906;1.892;2023-03-01T16:54:51;7.60;54.30
49238;DHT22;35069;47.906;1.892;2023-03-01T16:57:17;7.50;54.50
49238;DHT22;35069;47.906;1.892;2023-03-01T16:59:42;7.50;54.60
49238;DHT22;35069;47.906;1.892;2023-03-01T17:02:11;7.40;54.80
49238;DHT22;35069;47.906;1.892;2023-03-01T17:04:38;7.40;54.90
49238;DHT22;35069;47.906;1.892;2023-03-01T17:07:04;7.40;55.00
49238;DHT22;35069;47.906;1.892;2023-03-01T17:09:38;7.30;55.20
49238;DHT22;35069;47.906;1.892;2023-03-01T17:12:04;7.40;54.80
49238;DHT22;35069;47.906;1.892;2023-03-01T17:14:30;7.40;55.00
49238;DHT22;35069;47.906;1.892;2023-03-01T17:16:55;7.40;55.30
49238;DHT22;35069;47.906;1.892;2023-03-01T17:19:21;7.30;55.40
49238;DHT22;35069;47.906;1.892;2023-03-01T17:21:47;7.20;55.40
49238;DHT22;35069;47.906;1.892;2023-03-01T17:24:13;7.20;55.70
49238;DHT22;35069;47.906;1.892;2023-03-01T17:26:39;7.20;55.40
49238;DHT22;35069;47.906;1.892;2023-03-01T17:29:05;7.20;55.90
49238;DHT22;35069;47.906;1.892;2023-03-01T17:31:32;7.10;56.10
49238;DHT22;35069;47.906;1.892;2023-03-01T17:33:57;7.10;56.40
49238;DHT22;35069;47.906;1.892;2023-03-01T17:36:23;7.00;56.10
49238;DHT22;35069;47.906;1.892;2023-03-01T17:38:50;7.00;56.50
49238;DHT22;35069;47.906;1.892;2023-03-01T17:41:16;6.90;56.90
49238;DHT22;35069;47.906;1.892;2023-03-01T17:43:46;6.90;56.50
49238;DHT22;35069;47.906;1.892;2023-03-01T17:46:12;6.90;57.00
49238;DHT22;35069;47.906;1.892;2023-03-01T17:48:38;6.90;57.20
49238;DHT22;35069;47.906;1.892;2023-03-01T17:51:07;6.90;57.20
49238;DHT22;35069;47.906;1.892;2023-03-01T17:53:34;6.80;57.30
49238;DHT22;35069;47.906;1.892;2023-03-01T17:56:01;6.80;57.60
49238;DHT22;35069;47.906;1.892;2023-03-01T17:58:27;6.70;57.70
49238;DHT22;35069;47.906;1.892;2023-03-01T18:00:53;6.70;57.80
49238;DHT22;35069;47.906;1.892;2023-03-01T18:03:19;6.70;58.10
49238;DHT22;35069;47.906;1.892;2023-03-01T18:05:46;6.60;57.90